sensor_id;sensor_type;location;lat;lon;timestamp;P1;durP1;ratioP1;P2;durP2;ratioP2
21315;SDS011;10817;55.820;13.030;2023-03-14T00:00:51;36.45;;;6.03;;
21315;SDS011;10817;55.820;13.030;2023-03-14T00:03:18;39.35;;;6.10;;
21315;SDS011;10817;55.820;13.030;2023-03-14T00:05:45;47.33;;;7.57;;
21315;SDS011;10817;55.820;13.030;2023-03-14T00:08:12;42.65;;;7.82;;
21315;SDS011;10817;55.820;13.030;2023-03-14T00:10:39;43.28;;;6.43;;
21315;SDS011;10817;55.820;13.030;2023-03-14T00:13:07;39.30;;;6.40;;
21315;SDS011;10817;55.820;13.030;2023-03-14T00:15:34;39.17;;;6.22;;
21315;SDS011;10817;55.820;13.030;2023-03-14T00:18:03;46.97;;;7.63;;
21315;SDS011;10817;55.820;13.030;2023-03-14T00:20:30;34.95;;;6.00;;
21315;SDS011;10817;55.820;13.030;2023-03-14T00:22:57;43.22;;;7.05;;
21315;SDS011;10817;55.820;13.030;2023-03-14T00:25:25;44.70;;;7.07;;
21315;SDS011;10817;55.820;13.030;2023-03-14T00:27:52;43.63;;;7.28;;
21315;SDS011;10817;55.820;13.030;2023-03-14T00:30:19;29.95;;;6.40;;
21315;SDS011;10817;55.820;13.030;2023-03-14T00:32:46;37.00;;;5.63;;
21315;SDS011;10817;55.820;13.030;2023-03-14T00:35:15;37.10;;;6.30;;
21315;SDS011;10817;55.820;13.030;2023-03-14T00:37:42;34.03;;;5.78;;
21315;SDS011;10817;55.820;13.030;2023-03-14T00:40:10;37.45;;;6.45;;
21315;SDS011;10817;55.820;13.030;2023-03-14T00:42:37;31.48;;;5.95;;
21315;SDS011;10817;55.820;13.030;2023-03-14T00:45:05;36.75;;;6.55;;
21315;SDS011;10817;55.820;13.030;2023-03-14T00:47:33;38.83;;;5.85;;
21315;SDS011;10817;55.820;13.030;2023-03-14T00:50:01;40.15;;;6.38;;
21315;SDS011;10817;55.820;13.030;2023-03-14T00:52:29;38.78;;;6.22;;
21315;SDS011;10817;55.820;13.030;2023-03-14T00:54:56;31.85;;;5.82;;
21315;SDS011;10817;55.820;13.030;2023-03-14T00:57:24;36.42;;;5.93;;
21315;SDS011;10817;55.820;13.030;2023-03-14T00:59:51;41.30;;;6.38;;
21315;SDS011;10817;55.820;13.030;2023-03-14T01:02:18;42.88;;;5.93;;
21315;SDS011;10817;55.820;13.030;2023-03-14T01:04:48;37.72;;;5.13;;
21315;SDS011;10817;55.820;13.030;2023-03-14T01:07:15;38.78;;;5.57;;
21315;SDS011;10817;55.820;13.030;2023-03-14T01:09:44;39.42;;;5.50;;
21315;SDS011;10817;55.820;13.030;2023-03-14T01:12:11;38.30;;;6.57;;
21315;SDS011;10817;55.820;13.030;2023-03-14T01:14:41;38.88;;;5.93;;
21315;SDS011;10817;55.820;13.030;2023-03-14T01:17:08;35.63;;;6.22;;
21315;SDS011;10817;55.820;13.030;2023-03-14T01:19:35;35.40;;;5.15;;
21315;SDS011;10817;55.820;13.030;2023-03-14T01:22:02;24.58;;;5.60;;
21315;SDS011;10817;55.820;13.030;2023-03-14T01:24:30;34.67;;;5.65;;
21315;SDS011;10817;55.820;13.030;2023-03-14T01:26:58;39.50;;;6.72;;
21315;SDS011;10817;55.820;13.030;2023-03-14T01:29:27;31.95;;;5.15;;
21315;SDS011;10817;55.820;13.030;2023-03-14T01:31:54;33.53;;;5.82;;
21315;SDS011;10817;55.820;13.030;2023-03-14T01:34:22;41.92;;;5.93;;
21315;SDS011;10817;55.820;13.030;2023-03-14T01:36:49;41.53;;;5.68;;
21315;SDS011;10817;55.820;13.030;2023-03-14T01:39:17;37.03;;;5.68;;
21315;SDS011;10817;55.820;13.030;2023-03-14T01:41:44;29.17;;;4.85;;
21315;SDS011;10817;55.820;13.030;2023-03-14T01:44:13;35.58;;;6.85;;
21315;SDS011;10817;55.820;13.030;2023-03-14T01:46:40;35.47;;;5.78;;
21315;SDS011;10817;55.820;13.030;2023-03-14T01:49:11;38.92;;;6.18;;
21315;SDS011;10817;55.820;13.030;2023-03-14T01:51:44;39.55;;;7.05;;
21315;SDS011;10817;55.820;13.030;2023-03-14T01:54:14;32.80;;;5.30;;
21315;SDS011;10817;55.820;13.030;2023-03-14T01:56:43;31.35;;;5.50;;
21315;SDS011;10817;55.820;13.030;2023-03-14T01:59:12;31.80;;;5.30;;
21315;SDS011;10817;55.820;13.030;2023-03-14T02:01:41;39.47;;;6.45;;
21315;SDS011;10817;55.820;13.030;2023-03-14T02:04:09;37.13;;;5.72;;
21315;SDS011;10817;55.820;13.030;2023-03-14T02:06:42;34.97;;;5.18;;
21315;SDS011;10817;55.820;13.030;2023-03-14T02:09:12;35.40;;;5.50;;
21315;SDS011;10817;55.820;13.030;2023-03-14T02:11:39;39.65;;;6.00;;
21315;SDS011;10817;55.820;13.030;2023-03-14T02:14:18;30.25;;;4.70;;
21315;SDS011;10817;55.820;13.030;2023-03-14T02:17:17;30.05;;;5.07;;
21315;SDS011;10817;55.820;13.030;2023-03-14T02:20:18;33.70;;;6.55;;
21315;SDS011;10817;55.820;13.030;2023-03-14T02:22:53;40.22;;;6.05;;
21315;SDS011;10817;55.820;13.030;2023-03-14T02:25:24;30.48;;;4.97;;
21315;SDS011;10817;55.820;13.030;2023-03-14T02:27:56;29.60;;;4.60;;
21315;SDS011;10817;55.820;13.030;2023-03-14T02:30:24;29.88;;;4.88;;
21315;SDS011;10817;55.820;13.030;2023-03-14T02:32:52;32.88;;;5.70;;
21315;SDS011;10817;55.820;13.030;2023-03-14T02:35:21;27.38;;;4.55;;
21315;SDS011;10817;55.820;13.030;2023-03-14T02:37:50;26.33;;;4.50;;
21315;SDS011;10817;55.820;13.030;2023-03-14T02:40:20;32.70;;;5.55;;
21315;SDS011;10817;55.820;13.030;2023-03-14T02:42:50;30.70;;;4.95;;
21315;SDS011;10817;55.820;13.030;2023-03-14T02:45:36;34.28;;;5.13;;
21315;SDS011;10817;55.820;13.030;2023-03-14T02:48:04;28.55;;;4.72;;
21315;SDS011;10817;55.820;13.030;2023-03-14T02:50:35;31.77;;;4.72;;
21315;SDS011;10817;55.820;13.030;2023-03-14T02:53:02;22.58;;;4.60;;
21315;SDS011;10817;55.820;13.030;2023-03-14T02:55:30;29.58;;;4.60;;
21315;SDS011;10817;55.820;13.030;2023-03-14T02:58:02;27.75;;;5.28;;
21315;SDS011;10817;55.820;13.030;2023-03-14T03:00:29;30.80;;;5.55;;
21315;SDS011;10817;55.820;13.030;2023-03-14T03:02:59;33.15;;;5.82;;
21315;SDS011;10817;55.820;13.030;2023-03-14T03:05:27;35.00;;;6.00;;
21315;SDS011;10817;55.820;13.030;2023-03-14T03:07:54;34.28;;;5.03;;
21315;SDS011;10817;55.820;13.030;2023-03-14T03:10:22;32.50;;;4.85;;
21315;SDS011;10817;55.820;13.030;2023-03-14T03:12:50;29.52;;;5.20;;
21315;SDS011;10817;55.820;13.030;2023-03-14T03:15:20;28.13;;;4.40;;
21315;SDS011;10817;55.820;13.030;2023-03-14T03:17:48;39.33;;;5.22;;
21315;SDS011;10817;55.820;13.030;2023-03-14T03:20:16;25.60;;;4.80;;
21315;SDS011;10817;55.820;13.030;2023-03-14T03:22:44;38.53;;;5.70;;
21315;SDS011;10817;55.820;13.030;2023-03-14T03:25:11;29.02;;;5.45;;
21315;SDS011;10817;55.820;13.030;2023-03-14T03:27:38;24.70;;;4.40;;
21315;SDS011;10817;55.820;13.030;2023-03-14T03:30:05;31.23;;;4.60;;
21315;SDS011;10817;55.820;13.030;2023-03-14T03:32:34;32.70;;;4.90;;
21315;SDS011;10817;55.820;13.030;2023-03-14T03:35:01;26.58;;;4.97;;
21315;SDS011;10817;55.820;13.030;2023-03-14T03:37:31;32.22;;;5.18;;
21315;SDS011;10817;55.820;13.030;2023-03-14T03:39:58;28.10;;;5.07;;
21315;SDS011;10817;55.820;13.030;2023-03-14T03:42:26;34.13;;;5.45;;
21315;SDS011;10817;55.820;13.030;2023-03-14T03:44:53;28.55;;;4.38;;
21315;SDS011;10817;55.820;13.030;2023-03-14T03:47:22;24.50;;;4.57;;
21315;SDS011;10817;55.820;13.030;2023-03-14T03:49:50;27.67;;;5.18;;
21315;SDS011;10817;55.820;13.030;2023-03-14T03:52:17;29.73;;;4.95;;
21315;SDS011;10817;55.820;13.030;2023-03-14T03:54:47;32.97;;;5.53;;
21315;SDS011;10817;55.820;13.030;2023-03-14T03:57:14;36.22;;;6.13;;
21315;SDS011;10817;55.820;13.030;2023-03-14T03:59:41;35.42;;;5.63;;
21315;SDS011;10817;55.820;13.030;2023-03-14T04:02:08;42.65;;;5.45;;
21315;SDS011;10817;55.820;13.030;2023-03-14T04:04:35;30.75;;;5.88;;
21315;SDS011;10817;55.820;13.030;2023-03-14T04:07:04;36.95;;;5.85;;
21315;SDS011;10817;55.820;13.030;2023-03-14T04:09:31;29.05;;;5.10;;
21315;SDS011;10817;55.820;13.030;2023-03-14T04:12:22;41.75;;;7.88;;
21315;SDS011;10817;55.820;13.030;2023-03-14T04:14:57;33.47;;;4.88;;
21315;SDS011;10817;55.820;13.030;2023-03-14T04:17:24;38.60;;;5.10;;
21315;SDS011;10817;55.820;13.030;2023-03-14T04:19:51;50.78;;;6.28;;
21315;SDS011;10817;55.820;13.030;2023-03-14T04:22:21;30.85;;;6.18;;
21315;SDS011;10817;55.820;13.030;2023-03-14T04:24:50;42.30;;;5.65;;
21315;SDS011;10817;55.820;13.030;2023-03-14T04:27:19;35.95;;;5.28;;
21315;SDS011;10817;55.820;13.030;2023-03-14T04:29:48;39.75;;;5.55;;
21315;SDS011;10817;55.820;13.030;2023-03-14T04:32:21;33.75;;;5.63;;
21315;SDS011;10817;55.820;13.030;2023-03-14T04:34:48;28.20;;;5.43;;
21315;SDS011;10817;55.820;13.030;2023-03-14T04:37:15;32.63;;;5.93;;
21315;SDS011;10817;55.820;13.030;2023-03-14T04:39:43;27.17;;;6.38;;
21315;SDS011;10817;55.820;13.030;2023-03-14T04:42:24;32.95;;;4.70;;
21315;SDS011;10817;55.820;13.030;2023-03-14T04:44:53;33.40;;;5.10;;
21315;SDS011;10817;55.820;13.030;2023-03-14T04:47:23;36.58;;;5.63;;
21315;SDS011;10817;55.820;13.030;2023-03-14T04:49:51;31.20;;;5.53;;
21315;SDS011;10817;55.820;13.030;2023-03-14T04:52:19;38.25;;;5.68;;
21315;SDS011;10817;55.820;13.030;2023-03-14T04:54:46;27.20;;;4.63;;
21315;SDS011;10817;55.820;13.030;2023-03-14T04:57:13;30.55;;;5.18;;
21315;SDS011;10817;55.820;13.030;2023-03-14T04:59:41;29.63;;;5.50;;
21315;SDS011;10817;55.820;13.030;2023-03-14T05:02:30;29.40;;;5.30;;
21315;SDS011;10817;55.820;13.030;2023-03-14T05:05:16;26.42;;;5.28;;
21315;SDS011;10817;55.820;13.030;2023-03-14T05:07:57;32.25;;;4.43;;
21315;SDS011;10817;55.820;13.030;2023-03-14T05:10:44;28.67;;;5.15;;
21315;SDS011;10817;55.820;13.030;2023-03-14T05:13:23;22.42;;;4.20;;
21315;SDS011;10817;55.820;13.030;2023-03-14T05:16:10;29.83;;;4.40;;
21315;SDS011;10817;55.820;13.030;2023-03-14T05:19:02;30.00;;;4.40;;
21315;SDS011;10817;55.820;13.030;2023-03-14T05:21:55;31.25;;;5.03;;
21315;SDS011;10817;55.820;13.030;2023-03-14T05:24:35;25.95;;;5.32;;
21315;SDS011;10817;55.820;13.030;2023-03-14T05:27:25;23.30;;;5.18;;
21315;SDS011;10817;55.820;13.030;2023-03-14T05:30:19;25.65;;;4.18;;
21315;SDS011;10817;55.820;13.030;2023-03-14T05:33:09;26.42;;;4.32;;
21315;SDS011;10817;55.820;13.030;2023-03-14T05:35:48;23.83;;;4.38;;
21315;SDS011;10817;55.820;13.030;2023-03-14T05:38:35;31.10;;;4.28;;
21315;SDS011;10817;55.820;13.030;2023-03-14T05:41:21;33.63;;;4.47;;
21315;SDS011;10817;55.820;13.030;2023-03-14T05:43:59;25.48;;;4.53;;
21315;SDS011;10817;55.820;13.030;2023-03-14T05:46:44;23.23;;;4.82;;
21315;SDS011;10817;55.820;13.030;2023-03-14T05:49:30;32.95;;;4.68;;
21315;SDS011;10817;55.820;13.030;2023-03-14T05:52:17;22.13;;;4.78;;
21315;SDS011;10817;55.820;13.030;2023-03-14T05:54:57;20.77;;;4.47;;
21315;SDS011;10817;55.820;13.030;2023-03-14T05:57:39;21.38;;;4.13;;
21315;SDS011;10817;55.820;13.030;2023-03-14T06:00:09;32.70;;;5.78;;
21315;SDS011;10817;55.820;13.030;2023-03-14T06:02:49;18.77;;;4.30;;
21315;SDS011;10817;55.820;13.030;2023-03-14T06:05:22;24.05;;;4.40;;
21315;SDS011;10817;55.820;13.030;2023-03-14T06:07:56;20.45;;;4.47;;
21315;SDS011;10817;55.820;13.030;2023-03-14T06:10:24;23.30;;;4.22;;
21315;SDS011;10817;55.820;13.030;2023-03-14T06:12:52;26.45;;;4.47;;
21315;SDS011;10817;55.820;13.030;2023-03-14T06:15:20;23.00;;;4.30;;
21315;SDS011;10817;55.820;13.030;2023-03-14T06:17:49;23.98;;;4.57;;
21315;SDS011;10817;55.820;13.030;2023-03-14T06:20:17;22.52;;;4.07;;
21315;SDS011;10817;55.820;13.030;2023-03-14T06:22:44;19.20;;;4.97;;
21315;SDS011;10817;55.820;13.030;2023-03-14T06:25:14;21.25;;;4.18;;
21315;SDS011;10817;55.820;13.030;2023-03-14T06:27:44;26.85;;;4.90;;
21315;SDS011;10817;55.820;13.030;2023-03-14T06:30:13;24.77;;;5.20;;
21315;SDS011;10817;55.820;13.030;2023-03-14T06:32:41;19.27;;;4.13;;
21315;SDS011;10817;55.820;13.030;2023-03-14T06:35:11;24.58;;;5.10;;
21315;SDS011;10817;55.820;13.030;2023-03-14T06:37:41;35.10;;;4.78;;
21315;SDS011;10817;55.820;13.030;2023-03-14T06:40:09;22.02;;;4.63;;
21315;SDS011;10817;55.820;13.030;2023-03-14T06:42:56;15.02;;;4.43;;
21315;SDS011;10817;55.820;13.030;2023-03-14T06:45:26;16.27;;;4.57;;
21315;SDS011;10817;55.820;13.030;2023-03-14T06:47:54;20.88;;;4.40;;
21315;SDS011;10817;55.820;13.030;2023-03-14T06:50:28;24.35;;;4.22;;
21315;SDS011;10817;55.820;13.030;2023-03-14T06:52:58;21.80;;;4.22;;
21315;SDS011;10817;55.820;13.030;2023-03-14T06:55:26;19.35;;;4.68;;
21315;SDS011;10817;55.820;13.030;2023-03-14T06:57:53;21.95;;;4.25;;
21315;SDS011;10817;55.820;13.030;2023-03-14T07:00:25;16.38;;;4.00;;
21315;SDS011;10817;55.820;13.030;2023-03-14T07:02:56;22.23;;;4.28;;
21315;SDS011;10817;55.820;13.030;2023-03-14T07:05:27;24.63;;;4.03;;
21315;SDS011;10817;55.820;13.030;2023-03-14T07:07:55;13.38;;;3.80;;
21315;SDS011;10817;55.820;13.030;2023-03-14T07:10:23;25.60;;;3.72;;
21315;SDS011;10817;55.820;13.030;2023-03-14T07:12:50;30.77;;;4.47;;
21315;SDS011;10817;55.820;13.030;2023-03-14T07:15:20;26.88;;;5.18;;
21315;SDS011;10817;55.820;13.030;2023-03-14T07:17:53;21.55;;;3.88;;
21315;SDS011;10817;55.820;13.030;2023-03-14T07:20:22;24.90;;;4.65;;
21315;SDS011;10817;55.820;13.030;2023-03-14T07:22:50;25.35;;;4.93;;
21315;SDS011;10817;55.820;13.030;2023-03-14T07:25:25;16.27;;;3.55;;
21315;SDS011;10817;55.820;13.030;2023-03-14T07:27:52;22.20;;;4.57;;
21315;SDS011;10817;55.820;13.030;2023-03-14T07:30:20;18.48;;;4.47;;
21315;SDS011;10817;55.820;13.030;2023-03-14T07:32:47;15.45;;;4.68;;
21315;SDS011;10817;55.820;13.030;2023-03-14T07:35:16;15.85;;;4.60;;
21315;SDS011;10817;55.820;13.030;2023-03-14T07:37:43;20.00;;;4.53;;
21315;SDS011;10817;55.820;13.030;2023-03-14T07:40:12;17.20;;;4.63;;
21315;SDS011;10817;55.820;13.030;2023-03-14T07:42:41;20.80;;;4.63;;
21315;SDS011;10817;55.820;13.030;2023-03-14T07:45:18;14.98;;;5.20;;
21315;SDS011;10817;55.820;13.030;2023-03-14T07:47:45;18.33;;;4.85;;
21315;SDS011;10817;55.820;13.030;2023-03-14T07:50:12;18.77;;;5.72;;
21315;SDS011;10817;55.820;13.030;2023-03-14T07:52:41;13.95;;;4.97;;
21315;SDS011;10817;55.820;13.030;2023-03-14T07:55:08;13.77;;;4.53;;
21315;SDS011;10817;55.820;13.030;2023-03-14T07:57:38;16.15;;;4.78;;
21315;SDS011;10817;55.820;13.030;2023-03-14T08:00:06;14.55;;;5.22;;
21315;SDS011;10817;55.820;13.030;2023-03-14T08:02:38;15.70;;;4.47;;
21315;SDS011;10817;55.820;13.030;2023-03-14T08:05:05;16.20;;;6.80;;
21315;SDS011;10817;55.820;13.030;2023-03-14T08:07:33;17.60;;;5.53;;
21315;SDS011;10817;55.820;13.030;2023-03-14T08:10:03;16.48;;;6.25;;
21315;SDS011;10817;55.820;13.030;2023-03-14T08:12:30;19.23;;;5.70;;
21315;SDS011;10817;55.820;13.030;2023-03-14T08:14:57;19.85;;;5.47;;
21315;SDS011;10817;55.820;13.030;2023-03-14T08:17:25;16.50;;;5.63;;
21315;SDS011;10817;55.820;13.030;2023-03-14T08:19:52;22.95;;;5.68;;
21315;SDS011;10817;55.820;13.030;2023-03-14T08:22:20;14.80;;;5.82;;
21315;SDS011;10817;55.820;13.030;2023-03-14T08:24:47;16.08;;;5.78;;
21315;SDS011;10817;55.820;13.030;2023-03-14T08:27:15;17.08;;;5.90;;
21315;SDS011;10817;55.820;13.030;2023-03-14T08:29:43;18.35;;;6.00;;
21315;SDS011;10817;55.820;13.030;2023-03-14T08:32:10;17.10;;;5.65;;
21315;SDS011;10817;55.820;13.030;2023-03-14T08:34:37;18.05;;;6.07;;
21315;SDS011;10817;55.820;13.030;2023-03-14T08:37:04;20.48;;;5.65;;
21315;SDS011;10817;55.820;13.030;2023-03-14T08:39:31;17.55;;;5.75;;
21315;SDS011;10817;55.820;13.030;2023-03-14T08:41:59;15.32;;;6.00;;
21315;SDS011;10817;55.820;13.030;2023-03-14T08:44:27;17.65;;;6.45;;
21315;SDS011;10817;55.820;13.030;2023-03-14T08:46:54;17.38;;;6.68;;
21315;SDS011;10817;55.820;13.030;2023-03-14T08:49:21;18.52;;;6.70;;
21315;SDS011;10817;55.820;13.030;2023-03-14T08:51:49;15.88;;;6.20;;
21315;SDS011;10817;55.820;13.030;2023-03-14T08:54:16;21.13;;;6.93;;
21315;SDS011;10817;55.820;13.030;2023-03-14T08:56:43;21.98;;;6.45;;
21315;SDS011;10817;55.820;13.030;2023-03-14T08:59:12;14.38;;;6.53;;
21315;SDS011;10817;55.820;13.030;2023-03-14T09:01:40;15.35;;;5.32;;
21315;SDS011;10817;55.820;13.030;2023-03-14T09:04:07;14.25;;;4.68;;
21315;SDS011;10817;55.820;13.030;2023-03-14T09:06:35;12.35;;;4.28;;
21315;SDS011;10817;55.820;13.030;2023-03-14T09:09:02;11.95;;;4.50;;
21315;SDS011;10817;55.820;13.030;2023-03-14T09:11:32;12.60;;;4.70;;
21315;SDS011;10817;55.820;13.030;2023-03-14T09:14:01;18.85;;;4.88;;
21315;SDS011;10817;55.820;13.030;2023-03-14T09:16:29;9.35;;;4.55;;
21315;SDS011;10817;55.820;13.030;2023-03-14T09:18:57;17.30;;;4.50;;
21315;SDS011;10817;55.820;13.030;2023-03-14T09:21:25;16.10;;;4.78;;
21315;SDS011;10817;55.820;13.030;2023-03-14T09:23:53;12.25;;;4.20;;
21315;SDS011;10817;55.820;13.030;2023-03-14T09:26:20;10.55;;;3.97;;
21315;SDS011;10817;55.820;13.030;2023-03-14T09:28:47;16.98;;;4.53;;
21315;SDS011;10817;55.820;13.030;2023-03-14T09:31:14;13.18;;;4.72;;
21315;SDS011;10817;55.820;13.030;2023-03-14T09:33:42;7.57;;;1.83;;
21315;SDS011;10817;55.820;13.030;2023-03-14T09:36:11;8.98;;;2.15;;
21315;SDS011;10817;55.820;13.030;2023-03-14T09:38:38;7.93;;;1.98;;
21315;SDS011;10817;55.820;13.030;2023-03-14T09:41:11;10.35;;;1.90;;
21315;SDS011;10817;55.820;13.030;2023-03-14T09:43:39;15.50;;;2.60;;
21315;SDS011;10817;55.820;13.030;2023-03-14T09:46:07;14.13;;;3.15;;
21315;SDS011;10817;55.820;13.030;2023-03-14T09:48:36;12.32;;;2.63;;
21315;SDS011;10817;55.820;13.030;2023-03-14T09:51:05;17.45;;;2.85;;
21315;SDS011;10817;55.820;13.030;2023-03-14T09:53:37;21.02;;;3.70;;
21315;SDS011;10817;55.820;13.030;2023-03-14T09:56:07;22.20;;;3.15;;
21315;SDS011;10817;55.820;13.030;2023-03-14T09:58:36;15.30;;;2.63;;
21315;SDS011;10817;55.820;13.030;2023-03-14T10:01:04;11.95;;;2.58;;
21315;SDS011;10817;55.820;13.030;2023-03-14T10:03:32;19.33;;;3.00;;
21315;SDS011;10817;55.820;13.030;2023-03-14T10:05:59;15.27;;;2.47;;
21315;SDS011;10817;55.820;13.030;2023-03-14T10:08:27;22.13;;;3.15;;
21315;SDS011;10817;55.820;13.030;2023-03-14T10:10:56;16.65;;;2.80;;
21315;SDS011;10817;55.820;13.030;2023-03-14T10:13:25;15.80;;;3.63;;
21315;SDS011;10817;55.820;13.030;2023-03-14T10:15:58;16.20;;;2.35;;
21315;SDS011;10817;55.820;13.030;2023-03-14T10:18:27;28.98;;;3.67;;
21315;SDS011;10817;55.820;13.030;2023-03-14T10:21:02;19.38;;;3.35;;
21315;SDS011;10817;55.820;13.030;2023-03-14T10:23:30;19.77;;;2.88;;
21315;SDS011;10817;55.820;13.030;2023-03-14T10:26:03;20.17;;;3.45;;
21315;SDS011;10817;55.820;13.030;2023-03-14T10:28:31;14.90;;;3.17;;
21315;SDS011;10817;55.820;13.030;2023-03-14T10:30:59;12.60;;;2.30;;
21315;SDS011;10817;55.820;13.030;2023-03-14T10:33:27;13.50;;;2.90;;
21315;SDS011;10817;55.820;13.030;2023-03-14T10:35:56;7.47;;;2.00;;
21315;SDS011;10817;55.820;13.030;2023-03-14T10:38:24;13.68;;;2.10;;
21315;SDS011;10817;55.820;13.030;2023-03-14T10:40:52;18.98;;;2.50;;
21315;SDS011;10817;55.820;13.030;2023-03-14T10:43:23;11.23;;;2.17;;
21315;SDS011;10817;55.820;13.030;2023-03-14T10:45:54;10.32;;;1.83;;
21315;SDS011;10817;55.820;13.030;2023-03-14T10:48:24;10.65;;;2.13;;
21315;SDS011;10817;55.820;13.030;2023-03-14T10:50:56;4.03;;;1.42;;
21315;SDS011;10817;55.820;13.030;2023-03-14T10:53:23;11.35;;;2.45;;
21315;SDS011;10817;55.820;13.030;2023-03-14T10:55:51;14.07;;;3.03;;
21315;SDS011;10817;55.820;13.030;2023-03-14T10:58:23;16.70;;;2.40;;
21315;SDS011;10817;55.820;13.030;2023-03-14T11:00:52;14.25;;;2.33;;
21315;SDS011;10817;55.820;13.030;2023-03-14T11:03:20;9.50;;;1.90;;
21315;SDS011;10817;55.820;13.030;2023-03-14T11:05:49;10.25;;;1.80;;
21315;SDS011;10817;55.820;13.030;2023-03-14T11:08:20;7.10;;;1.50;;
21315;SDS011;10817;55.820;13.030;2023-03-14T11:10:52;7.88;;;1.83;;
21315;SDS011;10817;55.820;13.030;2023-03-14T11:13:26;14.43;;;2.60;;
21315;SDS011;10817;55.820;13.030;2023-03-14T11:15:58;9.88;;;1.95;;
21315;SDS011;10817;55.820;13.030;2023-03-14T11:18:34;8.60;;;1.60;;
21315;SDS011;10817;55.820;13.030;2023-03-14T11:21:05;7.90;;;2.17;;
21315;SDS011;10817;55.820;13.030;2023-03-14T11:23:37;10.82;;;1.75;;
21315;SDS011;10817;55.820;13.030;2023-03-14T11:26:12;7.60;;;1.63;;
21315;SDS011;10817;55.820;13.030;2023-03-14T11:28:45;7.78;;;1.40;;
21315;SDS011;10817;55.820;13.030;2023-03-14T11:31:15;3.78;;;1.17;;
21315;SDS011;10817;55.820;13.030;2023-03-14T11:33:46;6.35;;;1.30;;
21315;SDS011;10817;55.820;13.030;2023-03-14T11:36:15;4.18;;;1.30;;
21315;SDS011;10817;55.820;13.030;2023-03-14T11:38:47;8.95;;;1.65;;
21315;SDS011;10817;55.820;13.030;2023-03-14T11:41:16;11.10;;;2.22;;
21315;SDS011;10817;55.820;13.030;2023-03-14T11:43:47;12.82;;;1.83;;
21315;SDS011;10817;55.820;13.030;2023-03-14T11:46:16;7.63;;;1.88;;
21315;SDS011;10817;55.820;13.030;2023-03-14T11:48:45;12.30;;;2.13;;
21315;SDS011;10817;55.820;13.030;2023-03-14T11:51:16;13.15;;;2.22;;
21315;SDS011;10817;55.820;13.030;2023-03-14T11:53:47;4.28;;;1.55;;
21315;SDS011;10817;55.820;13.030;2023-03-14T11:56:17;10.75;;;1.70;;
21315;SDS011;10817;55.820;13.030;2023-03-14T11:58:50;9.05;;;1.88;;
21315;SDS011;10817;55.820;13.030;2023-03-14T12:01:18;9.65;;;2.00;;
21315;SDS011;10817;55.820;13.030;2023-03-14T12:03:52;11.80;;;2.28;;
21315;SDS011;10817;55.820;13.030;2023-03-14T12:06:21;9.88;;;2.28;;
21315;SDS011;10817;55.820;13.030;2023-03-14T12:08:49;12.68;;;2.38;;
21315;SDS011;10817;55.820;13.030;2023-03-14T12:11:18;11.93;;;2.08;;
21315;SDS011;10817;55.820;13.030;2023-03-14T12:13:48;10.23;;;2.10;;
21315;SDS011;10817;55.820;13.030;2023-03-14T12:19:14;12.93;;;2.55;;
21315;SDS011;10817;55.820;13.030;2023-03-14T12:21:44;17.75;;;2.65;;
21315;SDS011;10817;55.820;13.030;2023-03-14T12:24:16;13.23;;;2.25;;
21315;SDS011;10817;55.820;13.030;2023-03-14T12:26:46;14.63;;;2.67;;
21315;SDS011;10817;55.820;13.030;2023-03-14T12:29:17;10.50;;;2.15;;
21315;SDS011;10817;55.820;13.030;2023-03-14T12:31:45;9.60;;;1.88;;
21315;SDS011;10817;55.820;13.030;2023-03-14T12:34:26;16.38;;;2.75;;
21315;SDS011;10817;55.820;13.030;2023-03-14T12:39:50;12.38;;;2.10;;
21315;SDS011;10817;55.820;13.030;2023-03-14T12:42:36;10.13;;;2.35;;
21315;SDS011;10817;55.820;13.030;2023-03-14T12:45:20;13.82;;;2.88;;
21315;SDS011;10817;55.820;13.030;2023-03-14T12:50:38;15.48;;;3.38;;
21315;SDS011;10817;55.820;13.030;2023-03-14T12:53:16;11.90;;;2.00;;
21315;SDS011;10817;55.820;13.030;2023-03-14T12:55:49;11.20;;;2.67;;
21315;SDS011;10817;55.820;13.030;2023-03-14T12:58:21;13.82;;;2.75;;
21315;SDS011;10817;55.820;13.030;2023-03-14T13:00:55;17.35;;;2.88;;
21315;SDS011;10817;55.820;13.030;2023-03-14T13:03:25;8.13;;;2.05;;
21315;SDS011;10817;55.820;13.030;2023-03-14T13:05:54;11.15;;;2.47;;
21315;SDS011;10817;55.820;13.030;2023-03-14T13:08:33;9.90;;;2.05;;
21315;SDS011;10817;55.820;13.030;2023-03-14T13:11:01;10.10;;;2.33;;
21315;SDS011;10817;55.820;13.030;2023-03-14T13:13:29;16.10;;;2.67;;
21315;SDS011;10817;55.820;13.030;2023-03-14T13:15:59;12.95;;;2.38;;
21315;SDS011;10817;55.820;13.030;2023-03-14T13:18:29;11.13;;;2.40;;
21315;SDS011;10817;55.820;13.030;2023-03-14T13:20:58;11.55;;;2.03;;
21315;SDS011;10817;55.820;13.030;2023-03-14T13:23:26;10.00;;;2.50;;
21315;SDS011;10817;55.820;13.030;2023-03-14T13:25:54;17.52;;;2.45;;
21315;SDS011;10817;55.820;13.030;2023-03-14T13:28:22;14.10;;;3.15;;
21315;SDS011;10817;55.820;13.030;2023-03-14T13:30:50;9.10;;;1.77;;
21315;SDS011;10817;55.820;13.030;2023-03-14T13:33:23;13.10;;;2.03;;
21315;SDS011;10817;55.820;13.030;2023-03-14T13:35:54;8.35;;;1.73;;
21315;SDS011;10817;55.820;13.030;2023-03-14T13:38:22;10.23;;;2.05;;
21315;SDS011;10817;55.820;13.030;2023-03-14T13:40:49;12.32;;;2.20;;
21315;SDS011;10817;55.820;13.030;2023-03-14T13:43:18;13.68;;;2.50;;
21315;SDS011;10817;55.820;13.030;2023-03-14T13:45:50;16.35;;;2.97;;
21315;SDS011;10817;55.820;13.030;2023-03-14T13:48:17;12.52;;;2.10;;
21315;SDS011;10817;55.820;13.030;2023-03-14T13:50:47;15.40;;;2.13;;
21315;SDS011;10817;55.820;13.030;2023-03-14T13:53:16;14.90;;;2.40;;
21315;SDS011;10817;55.820;13.030;2023-03-14T13:55:43;10.55;;;1.95;;
21315;SDS011;10817;55.820;13.030;2023-03-14T13:58:12;11.52;;;2.03;;
21315;SDS011;10817;55.820;13.030;2023-03-14T14:00:40;13.70;;;2.15;;
21315;SDS011;10817;55.820;13.030;2023-03-14T14:03:08;6.50;;;1.65;;
21315;SDS011;10817;55.820;13.030;2023-03-14T14:05:37;9.60;;;2.05;;
21315;SDS011;10817;55.820;13.030;2023-03-14T14:08:10;11.38;;;1.95;;
21315;SDS011;10817;55.820;13.030;2023-03-14T14:10:37;8.07;;;1.98;;
21315;SDS011;10817;55.820;13.030;2023-03-14T14:13:05;14.07;;;2.50;;
21315;SDS011;10817;55.820;13.030;2023-03-14T14:15:36;15.32;;;2.00;;
21315;SDS011;10817;55.820;13.030;2023-03-14T14:18:07;9.30;;;1.83;;
21315;SDS011;10817;55.820;13.030;2023-03-14T14:20:37;15.68;;;3.75;;
21315;SDS011;10817;55.820;13.030;2023-03-14T14:23:06;11.00;;;2.00;;
21315;SDS011;10817;55.820;13.030;2023-03-14T14:25:36;11.57;;;3.10;;
21315;SDS011;10817;55.820;13.030;2023-03-14T14:28:14;16.25;;;2.08;;
21315;SDS011;10817;55.820;13.030;2023-03-14T14:30:41;11.23;;;1.83;;
21315;SDS011;10817;55.820;13.030;2023-03-14T14:33:16;12.73;;;1.98;;
21315;SDS011;10817;55.820;13.030;2023-03-14T14:35:52;12.25;;;2.38;;
21315;SDS011;10817;55.820;13.030;2023-03-14T14:38:22;13.23;;;2.15;;
21315;SDS011;10817;55.820;13.030;2023-03-14T14:40:51;6.90;;;1.90;;
21315;SDS011;10817;55.820;13.030;2023-03-14T14:43:21;7.70;;;1.75;;
21315;SDS011;10817;55.820;13.030;2023-03-14T14:45:49;8.50;;;1.83;;
21315;SDS011;10817;55.820;13.030;2023-03-14T14:48:18;10.68;;;1.98;;
21315;SDS011;10817;55.820;13.030;2023-03-14T14:50:50;16.60;;;2.05;;